sensor_id;sensor_type;location;lat;lon;timestamp;pressure;altitude;pressure_sealevel;temperature;humidity
31717;BME280;18301;51.076;17.046;2023-02-20T00:02:33;100830.47;;;3.05;73.72
31717;BME280;18301;51.076;17.046;2023-02-20T00:07:36;100830.19;;;3.13;73.40
31717;BME280;18301;51.076;17.046;2023-02-20T00:12:38;100831.03;;;3.15;73.86
31717;BME280;18301;51.076;17.046;2023-02-20T00:17:41;100826.16;;;3.26;74.19
31717;BME280;18301;51.076;17.046;2023-02-20T00:22:43;100818.03;;;3.29;74.23
31717;BME280;18301;51.076;17.046;2023-02-20T00:27:45;100798.00;;;3.42;74.00
31717;BME280;18301;51.076;17.046;2023-02-20T00:32:48;100784.53;;;3.45;73.90
31717;BME280;18301;51.076;17.046;2023-02-20T00:37:51;100768.97;;;3.57;73.84
31717;BME280;18301;51.076;17.046;2023-02-20T00:42:52;100775.94;;;3.61;74.24
31717;BME280;18301;51.076;17.046;2023-02-20T00:47:54;100770.59;;;3.61;73.94
31717;BME280;18301;51.076;17.046;2023-02-20T00:52:55;100772.94;;;3.68;73.57
31717;BME280;18301;51.076;17.046;2023-02-20T00:57:57;100780.78;;;3.73;73.46
31717;BME280;18301;51.076;17.046;2023-02-20T01:02:58;100778.00;;;3.76;73.79
31717;BME280;18301;51.076;17.046;2023-02-20T01:08:00;100775.47;;;3.73;73.57
31717;BME280;18301;51.076;17.046;2023-02-20T01:13:01;100762.03;;;3.75;73.28
31717;BME280;18301;51.076;17.046;2023-02-20T01:18:03;100765.91;;;3.89;73.39
31717;BME280;18301;51.076;17.046;2023-02-20T01:23:06;100766.88;;;3.87;72.98
31717;BME280;18301;51.076;17.046;2023-02-20T01:28:07;100759.19;;;3.79;72.86
31717;BME280;18301;51.076;17.046;2023-02-20T01:33:09;100750.84;;;3.87;72.77
31717;BME280;18301;51.076;17.046;2023-02-20T01:38:10;100745.78;;;3.81;72.96
31717;BME280;18301;51.076;17.046;2023-02-20T01:43:12;100726.53;;;3.95;73.18
31717;BME280;18301;51.076;17.046;2023-02-20T01:48:24;100702.38;;;3.98;72.74
31717;BME280;18301;51.076;17.046;2023-02-20T01:53:27;100717.06;;;4.08;72.24
31717;BME280;18301;51.076;17.046;2023-02-20T01:58:34;100717.81;;;4.11;72.07
31717;BME280;18301;51.076;17.046;2023-02-20T02:03:40;100704.22;;;3.96;72.59
31717;BME280;18301;51.076;17.046;2023-02-20T02:08:44;100697.44;;;4.09;72.53
31717;BME280;18301;51.076;17.046;2023-02-20T02:13:46;100693.22;;;4.03;72.52
31717;BME280;18301;51.076;17.046;2023-02-20T02:41:10;100671.38;;;3.93;71.85
31717;BME280;18301;51.076;17.046;2023-02-20T02:46:32;100649.09;;;3.95;71.67
31717;BME280;18301;51.076;17.046;2023-02-20T02:51:38;100653.63;;;3.92;72.19
31717;BME280;18301;51.076;17.046;2023-02-20T02:56:46;100654.69;;;3.88;72.85
31717;BME280;18301;51.076;17.046;2023-02-20T03:01:52;100657.25;;;3.91;72.45
31717;BME280;18301;51.076;17.046;2023-02-20T03:06:59;100634.38;;;3.84;72.46
31717;BME280;18301;51.076;17.046;2023-02-20T03:12:02;100630.53;;;3.91;72.56
31717;BME280;18301;51.076;17.046;2023-02-20T03:17:29;100628.91;;;3.87;72.89
31717;BME280;18301;51.076;17.046;2023-02-20T03:22:42;100627.06;;;3.89;72.58
31717;BME280;18301;51.076;17.046;2023-02-20T03:27:51;100630.94;;;3.82;73.01
31717;BME280;18301;51.076;17.046;2023-02-20T03:33:01;100640.84;;;4.01;72.32
31717;BME280;18301;51.076;17.046;2023-02-20T03:38:23;100644.69;;;4.14;72.14
31717;BME280;18301;51.076;17.046;2023-02-20T03:43:45;100638.28;;;4.18;72.51
31717;BME280;18301;51.076;17.046;2023-02-20T03:49:01;100623.88;;;4.22;71.88
31717;BME280;18301;51.076;17.046;2023-02-20T03:54:04;100623.25;;;4.15;72.12
31717;BME280;18301;51.076;17.046;2023-02-20T04:00:20;100616.66;;;4.24;71.57
31717;BME280;18301;51.076;17.046;2023-02-20T04:04:51;100599.63;;;4.27;71.06
31717;BME280;18301;51.076;17.046;2023-02-20T04:09:55;100612.50;;;4.37;69.73
31717;BME280;18301;51.076;17.046;2023-02-20T04:14:59;100593.13;;;4.32;69.34
31717;BME280;18301;51.076;17.046;2023-02-20T04:20:01;100568.97;;;4.15;69.82
31717;BME280;18301;51.076;17.046;2023-02-20T04:25:13;100573.72;;;4.08;69.97
31717;BME280;18301;51.076;17.046;2023-02-20T04:30:18;100577.94;;;4.14;69.62
31717;BME280;18301;51.076;17.046;2023-02-20T04:35:20;100584.13;;;4.14;69.51
31717;BME280;18301;51.076;17.046;2023-02-20T04:40:23;100582.88;;;4.23;69.88
31717;BME280;18301;51.076;17.046;2023-02-20T04:45:25;100572.84;;;4.28;69.60
31717;BME280;18301;51.076;17.046;2023-02-20T04:50:28;100574.47;;;4.31;69.32
31717;BME280;18301;51.076;17.046;2023-02-20T04:55:30;100547.56;;;4.35;69.68
31717;BME280;18301;51.076;17.046;2023-02-20T05:00:32;100550.66;;;4.26;69.37
31717;BME280;18301;51.076;17.046;2023-02-20T05:05:33;100548.66;;;4.31;69.78
31717;BME280;18301;51.076;17.046;2023-02-20T05:10:35;100533.28;;;4.36;70.08
31717;BME280;18301;51.076;17.046;2023-02-20T05:15:37;100539.63;;;4.34;69.89
31717;BME280;18301;51.076;17.046;2023-02-20T05:20:38;100537.69;;;4.37;70.66
31717;BME280;18301;51.076;17.046;2023-02-20T05:25:58;100526.50;;;4.48;71.02
31717;BME280;18301;51.076;17.046;2023-02-20T05:30:59;100527.94;;;4.55;70.94
31717;BME280;18301;51.076;17.046;2023-02-20T05:36:01;100522.97;;;4.48;70.79
31717;BME280;18301;51.076;17.046;2023-02-20T05:41:02;100524.53;;;4.52;71.55
31717;BME280;18301;51.076;17.046;2023-02-20T05:46:04;100526.94;;;4.58;71.35
31717;BME280;18301;51.076;17.046;2023-02-20T05:51:05;100525.88;;;4.62;71.55
31717;BME280;18301;51.076;17.046;2023-02-20T05:56:07;100530.13;;;4.66;71.67
31717;BME280;18301;51.076;17.046;2023-02-20T06:01:15;100523.53;;;4.73;71.27
31717;BME280;18301;51.076;17.046;2023-02-20T06:06:17;100525.13;;;4.77;72.01
31717;BME280;18301;51.076;17.046;2023-02-20T06:11:19;100510.47;;;4.67;71.55
31717;BME280;18301;51.076;17.046;2023-02-20T06:16:22;100504.63;;;4.78;71.83
31717;BME280;18301;51.076;17.046;2023-02-20T06:21:24;100521.44;;;4.80;72.40
31717;BME280;18301;51.076;17.046;2023-02-20T06:26:26;100506.41;;;4.77;73.06
31717;BME280;18301;51.076;17.046;2023-02-20T06:31:27;100507.00;;;4.84;73.27
31717;BME280;18301;51.076;17.046;2023-02-20T06:36:31;100503.88;;;4.93;73.40
31717;BME280;18301;51.076;17.046;2023-02-20T06:41:35;100496.09;;;5.06;73.52
31717;BME280;18301;51.076;17.046;2023-02-20T06:46:36;100489.34;;;5.16;73.52
31717;BME280;18301;51.076;17.046;2023-02-20T06:51:38;100495.66;;;5.15;73.38
31717;BME280;18301;51.076;17.046;2023-02-20T06:56:40;100483.59;;;5.06;73.87
31717;BME280;18301;51.076;17.046;2023-02-20T07:01:42;100485.78;;;4.98;74.52
31717;BME280;18301;51.076;17.046;2023-02-20T07:06:44;100486.00;;;5.30;73.35
31717;BME280;18301;51.076;17.046;2023-02-20T07:11:47;100473.06;;;5.38;73.36
31717;BME280;18301;51.076;17.046;2023-02-20T07:16:51;100452.03;;;5.48;73.62
31717;BME280;18301;51.076;17.046;2023-02-20T07:21:53;100443.84;;;5.51;73.72
31717;BME280;18301;51.076;17.046;2023-02-20T07:26:54;100437.63;;;5.50;74.27
31717;BME280;18301;51.076;17.046;2023-02-20T07:31:55;100426.06;;;5.50;75.21
31717;BME280;18301;51.076;17.046;2023-02-20T07:36:56;100410.34;;;5.44;76.23
31717;BME280;18301;51.076;17.046;2023-02-20T07:41:58;100402.56;;;5.72;74.84
31717;BME280;18301;51.076;17.046;2023-02-20T07:46:59;100385.06;;;5.83;76.05
31717;BME280;18301;51.076;17.046;2023-02-20T07:52:01;100388.19;;;5.91;76.35
31717;BME280;18301;51.076;17.046;2023-02-20T07:57:02;100377.16;;;5.97;76.22
31717;BME280;18301;51.076;17.046;2023-02-20T08:02:04;100368.81;;;6.35;75.37
31717;BME280;18301;51.076;17.046;2023-02-20T08:07:05;100358.75;;;6.54;74.90
31717;BME280;18301;51.076;17.046;2023-02-20T08:12:07;100361.72;;;6.50;75.77
31717;BME280;18301;51.076;17.046;2023-02-20T08:17:08;100349.16;;;6.50;75.50
31717;BME280;18301;51.076;17.046;2023-02-20T08:22:12;100342.31;;;6.60;75.49
31717;BME280;18301;51.076;17.046;2023-02-20T08:27:13;100330.25;;;6.67;75.49
31717;BME280;18301;51.076;17.046;2023-02-20T08:32:15;100330.63;;;6.61;76.47
31717;BME280;18301;51.076;17.046;2023-02-20T08:37:16;100324.84;;;6.83;76.38
31717;BME280;18301;51.076;17.046;2023-02-20T08:42:18;100315.59;;;6.89;76.78
31717;BME280;18301;51.076;17.046;2023-02-20T08:47:19;100298.38;;;7.07;76.12
31717;BME280;18301;51.076;17.046;2023-02-20T08:52:21;100297.91;;;7.29;76.09
31717;BME280;18301;51.076;17.046;2023-02-20T08:57:22;100287.69;;;7.36;76.44
31717;BME280;18301;51.076;17.046;2023-02-20T09:02:24;100274.25;;;7.65;76.36
31717;BME280;18301;51.076;17.046;2023-02-20T09:07:29;100274.03;;;7.82;75.47
31717;BME280;18301;51.076;17.046;2023-02-20T09:12:30;100265.59;;;7.74;75.90
31717;BME280;18301;51.076;17.046;2023-02-20T09:17:32;100261.78;;;7.64;76.42
31717;BME280;18301;51.076;17.046;2023-02-20T09:22:34;100251.63;;;7.54;77.05
31717;BME280;18301;51.076;17.046;2023-02-20T09:27:35;100246.00;;;7.72;76.53
31717;BME280;18301;51.076;17.046;2023-02-20T09:32:37;100238.00;;;7.99;75.45
31717;BME280;18301;51.076;17.046;2023-02-20T09:37:39;100202.75;;;8.03;75.04
31717;BME280;18301;51.076;17.046;2023-02-20T09:48:22;100192.28;;;8.26;73.60
31717;BME280;18301;51.076;17.046;2023-02-20T09:53:34;100183.78;;;8.59;72.42
31717;BME280;18301;51.076;17.046;2023-02-20T09:58:47;100194.97;;;8.66;71.88
31717;BME280;18301;51.076;17.046;2023-02-20T10:04:03;100186.34;;;8.61;71.40
31717;BME280;18301;51.076;17.046;2023-02-20T10:09:10;100181.19;;;8.58;71.28
31717;BME280;18301;51.076;17.046;2023-02-20T10:19:54;100119.53;;;8.67;70.49
31717;BME280;18301;51.076;17.046;2023-02-20T10:29:59;100105.00;;;8.83;69.87
31717;BME280;18301;51.076;17.046;2023-02-20T10:35:08;100081.31;;;9.01;69.72
31717;BME280;18301;51.076;17.046;2023-02-20T10:40:19;100048.84;;;8.78;70.57
31717;BME280;18301;51.076;17.046;2023-02-20T10:51:05;100016.34;;;9.18;69.82
31717;BME280;18301;51.076;17.046;2023-02-20T11:01:34;99981.50;;;9.63;67.92
31717;BME280;18301;51.076;17.046;2023-02-20T11:06:41;99999.69;;;9.83;68.41
31717;BME280;18301;51.076;17.046;2023-02-20T11:11:45;99982.59;;;9.96;66.73
31717;BME280;18301;51.076;17.046;2023-02-20T11:16:55;99987.34;;;10.03;66.93
31717;BME280;18301;51.076;17.046;2023-02-20T11:21:57;99976.50;;;10.16;66.94
31717;BME280;18301;51.076;17.046;2023-02-20T11:27:20;99966.72;;;10.38;66.87
31717;BME280;18301;51.076;17.046;2023-02-20T11:37:30;99944.13;;;10.61;66.67
31717;BME280;18301;51.076;17.046;2023-02-20T11:42:36;99931.84;;;10.68;66.86
31717;BME280;18301;51.076;17.046;2023-02-20T11:47:38;99920.16;;;10.90;66.82
31717;BME280;18301;51.076;17.046;2023-02-20T11:53:02;99900.06;;;11.15;65.76
31717;BME280;18301;51.076;17.046;2023-02-20T11:58:18;99877.94;;;11.21;64.58
31717;BME280;18301;51.076;17.046;2023-02-20T12:03:26;99873.00;;;11.26;61.98
31717;BME280;18301;51.076;17.046;2023-02-20T12:08:52;99850.06;;;11.42;62.29
31717;BME280;18301;51.076;17.046;2023-02-20T12:13:57;99840.69;;;11.36;60.95
31717;BME280;18301;51.076;17.046;2023-02-20T12:35:15;99777.88;;;11.44;61.95
31717;BME280;18301;51.076;17.046;2023-02-20T12:40:39;99763.63;;;11.42;62.51
31717;BME280;18301;51.076;17.046;2023-02-20T12:46:15;99735.75;;;11.41;62.79
31717;BME280;18301;51.076;17.046;2023-02-20T13:02:34;99720.78;;;11.58;62.19
31717;BME280;18301;51.076;17.046;2023-02-20T13:07:50;99690.38;;;11.75;61.22
31717;BME280;18301;51.076;17.046;2023-02-20T13:12:53;99686.69;;;11.77;60.43
31717;BME280;18301;51.076;17.046;2023-02-20T13:28:26;99673.09;;;11.57;61.91
31717;BME280;18301;51.076;17.046;2023-02-20T13:33:31;99665.53;;;11.51;61.97
31717;BME280;18301;51.076;17.046;2023-02-20T13:38:33;99658.31;;;11.92;60.17
31717;BME280;18301;51.076;17.046;2023-02-20T13:43:36;99641.16;;;11.82;60.63
31717;BME280;18301;51.076;17.046;2023-02-20T13:48:43;99644.28;;;11.67;60.03
31717;BME280;18301;51.076;17.046;2023-02-20T13:53:50;99626.66;;;11.83;59.99
31717;BME280;18301;51.076;17.046;2023-02-20T13:58:55;99635.25;;;12.07;56.58
31717;BME280;18301;51.076;17.046;2023-02-20T14:04:00;99632.69;;;12.35;56.17
31717;BME280;18301;51.076;17.046;2023-02-20T14:09:19;99635.22;;;12.46;54.97
31717;BME280;18301;51.076;17.046;2023-02-20T14:14:36;99616.97;;;12.67;54.01
31717;BME280;18301;51.076;17.046;2023-02-20T14:19:42;99627.22;;;12.74;54.12
31717;BME280;18301;51.076;17.046;2023-02-20T14:24:44;99619.84;;;12.56;54.91
31717;BME280;18301;51.076;17.046;2023-02-20T14:29:45;99607.44;;;12.63;55.01
31717;BME280;18301;51.076;17.046;2023-02-20T14:40:41;99592.81;;;12.37;56.64
31717;BME280;18301;51.076;17.046;2023-02-20T14:45:44;99592.56;;;12.20;57.68
31717;BME280;18301;51.076;17.046;2023-02-20T14:50:46;99599.09;;;12.28;57.46
31717;BME280;18301;51.076;17.046;2023-02-20T14:55:48;99581.00;;;12.18;58.15
31717;BME280;18301;51.076;17.046;2023-02-20T15:00:50;99581.56;;;12.22;58.10
31717;BME280;18301;51.076;17.046;2023-02-20T15:05:54;99596.53;;;12.36;58.18
31717;BME280;18301;51.076;17.046;2023-02-20T15:11:09;99601.78;;;12.28;58.63
31717;BME280;18301;51.076;17.046;2023-02-20T15:16:22;99611.91;;;12.06;59.61
31717;BME280;18301;51.076;17.046;2023-02-20T15:21:31;99622.03;;;12.04;59.89
31717;BME280;18301;51.076;17.046;2023-02-20T15:26:35;99630.97;;;12.05;60.30
31717;BME280;18301;51.076;17.046;2023-02-20T15:31:37;99629.56;;;12.10;60.47
31717;BME280;18301;51.076;17.046;2023-02-20T15:36:39;99632.41;;;12.18;60.54
31717;BME280;18301;51.076;17.046;2023-02-20T15:41:42;99650.06;;;12.23;60.64
31717;BME280;18301;51.076;17.046;2023-02-20T15:46:45;99639.78;;;11.97;61.99
31717;BME280;18301;51.076;17.046;2023-02-20T15:51:48;99648.34;;;12.31;61.77
31717;BME280;18301;51.076;17.046;2023-02-20T15:56:54;99647.78;;;12.18;62.75
31717;BME280;18301;51.076;17.046;2023-02-20T16:01:55;99657.88;;;12.45;62.28
31717;BME280;18301;51.076;17.046;2023-02-20T16:06:57;99658.03;;;12.53;62.50
31717;BME280;18301;51.076;17.046;2023-02-20T16:11:58;99640.53;;;12.38;63.13
31717;BME280;18301;51.076;17.046;2023-02-20T16:17:00;99654.63;;;12.32;63.63
31717;BME280;18301;51.076;17.046;2023-02-20T16:22:02;99645.22;;;12.36;64.03
31717;BME280;18301;51.076;17.046;2023-02-20T16:27:03;99676.97;;;12.34;64.19
31717;BME280;18301;51.076;17.046;2023-02-20T16:32:28;99686.22;;;12.21;64.60
31717;BME280;18301;51.076;17.046;2023-02-20T16:37:30;99679.38;;;12.17;65.24
31717;BME280;18301;51.076;17.046;2023-02-20T16:42:34;99667.69;;;11.97;65.94
31717;BME280;18301;51.076;17.046;2023-02-20T16:47:37;99690.66;;;12.23;65.04
31717;BME280;18301;51.076;17.046;2023-02-20T16:52:39;99692.63;;;12.01;65.78
31717;BME280;18301;51.076;17.046;2023-02-20T16:57:41;99709.22;;;11.87;66.92
31717;BME280;18301;51.076;17.046;2023-02-20T17:02:43;99694.03;;;12.25;65.62
31717;BME280;18301;51.076;17.046;2023-02-20T17:07:45;99717.66;;;12.03;66.76
31717;BME280;18301;51.076;17.046;2023-02-20T17:12:46;99723.63;;;11.66;68.18
31717;BME280;18301;51.076;17.046;2023-02-20T17:17:48;99729.53;;;11.50;68.51
31717;BME280;18301;51.076;17.046;2023-02-20T17:22:51;99724.19;;;11.29;70.14
31717;BME280;18301;51.076;17.046;2023-02-20T17:28:04;99737.91;;;11.78;68.83
31717;BME280;18301;51.076;17.046;2023-02-20T17:33:06;99743.09;;;11.60;69.00
31717;BME280;18301;51.076;17.046;2023-02-20T17:38:08;99762.09;;;11.80;68.20
31717;BME280;18301;51.076;17.046;2023-02-20T17:43:09;99738.91;;;11.46;69.58
31717;BME280;18301;51.076;17.046;2023-02-20T17:48:11;99750.50;;;11.06;72.17
31717;BME280;18301;51.076;17.046;2023-02-20T17:53:12;99754.69;;;11.20;71.40
31717;BME280;18301;51.076;17.046;2023-02-20T17:58:15;99765.50;;;11.20;71.88
31717;BME280;18301;51.076;17.046;2023-02-20T18:03:16;99759.72;;;11.04;72.44
31717;BME280;18301;51.076;17.046;2023-02-20T18:08:18;99751.13;;;10.99;73.18
31717;BME280;18301;51.076;17.046;2023-02-20T18:13:19;99741.81;;;11.03;73.37
31717;BME280;18301;51.076;17.046;2023-02-20T18:18:21;99725.03;;;10.99;73.50
31717;BME280;18301;51.076;17.046;2023-02-20T18:23:22;99731.81;;;10.94;73.52
31717;BME280;18301;51.076;17.046;2023-02-20T18:28:24;99732.31;;;10.67;75.14
31717;BME280;18301;51.076;17.046;2023-02-20T18:33:25;99727.50;;;10.70;74.67
31717;BME280;18301;51.076;17.046;2023-02-20T18:38:27;99710.84;;;10.65;74.81
31717;BME280;18301;51.076;17.046;2023-02-20T18:43:28;99715.41;;;10.32;75.91
31717;BME280;18301;51.076;17.046;2023-02-20T18:48:30;99721.72;;;10.54;74.66
31717;BME280;18301;51.076;17.046;2023-02-20T18:53:31;99709.78;;;10.77;73.61
31717;BME280;18301;51.076;17.046;2023-02-20T18:58:33;99695.97;;;10.50;75.03
31717;BME280;18301;51.076;17.046;2023-02-20T19:03:34;99684.31;;;10.49;75.20
31717;BME280;18301;51.076;17.046;2023-02-20T19:08:35;99680.84;;;10.79;73.66
31717;BME280;18301;51.076;17.046;2023-02-20T19:13:37;99681.41;;;10.62;74.28
31717;BME280;18301;51.076;17.046;2023-02-20T19:18:39;99672.09;;;10.45;75.37
31717;BME280;18301;51.076;17.046;2023-02-20T19:23:50;99643.09;;;10.38;75.03
31717;BME280;18301;51.076;17.046;2023-02-20T19:28:51;99649.72;;;10.54;74.67
31717;BME280;18301;51.076;17.046;2023-02-20T19:33:53;99609.47;;;10.63;74.12
31717;BME280;18301;51.076;17.046;2023-02-20T19:38:54;99619.34;;;10.83;73.08
31717;BME280;18301;51.076;17.046;2023-02-20T19:43:56;99640.56;;;10.46;73.81
31717;BME280;18301;51.076;17.046;2023-02-20T19:48:57;99626.34;;;10.65;72.96
31717;BME280;18301;51.076;17.046;2023-02-20T19:53:59;99627.88;;;10.78;72.43
31717;BME280;18301;51.076;17.046;2023-02-20T19:59:01;99641.09;;;10.81;71.94
31717;BME280;18301;51.076;17.046;2023-02-20T20:04:03;99654.72;;;10.59;72.11
31717;BME280;18301;51.076;17.046;2023-02-20T20:09:04;99637.81;;;10.57;72.16
31717;BME280;18301;51.076;17.046;2023-02-20T20:14:21;99643.00;;;10.49;72.33
31717;BME280;18301;51.076;17.046;2023-02-20T20:19:24;99638.88;;;10.66;71.57
31717;BME280;18301;51.076;17.046;2023-02-20T20:24:25;99643.25;;;10.46;72.21
31717;BME280;18301;51.076;17.046;2023-02-20T20:29:27;99658.47;;;10.47;71.59
31717;BME280;18301;51.076;17.046;2023-02-20T20:34:28;99655.41;;;10.19;72.13
31717;BME280;18301;51.076;17.046;2023-02-20T20:39:29;99630.50;;;10.69;70.38
31717;BME280;18301;51.076;17.046;2023-02-20T20:44:31;99623.59;;;10.55;70.32
31717;BME280;18301;51.076;17.046;2023-02-20T20:49:33;99637.03;;;10.66;69.88
31717;BME280;18301;51.076;17.046;2023-02-20T20:54:34;99633.47;;;10.45;70.26
31717;BME280;18301;51.076;17.046;2023-02-20T20:59:40;99646.50;;;10.81;68.85
31717;BME280;18301;51.076;17.046;2023-02-20T21:04:44;99642.41;;;10.66;69.77
31717;BME280;18301;51.076;17.046;2023-02-20T21:09:47;99644.75;;;10.80;68.59
31717;BME280;18301;51.076;17.046;2023-02-20T21:14:48;99641.16;;;10.49;69.82
31717;BME280;18301;51.076;17.046;2023-02-20T21:19:50;99649.53;;;10.67;69.19
31717;BME280;18301;51.076;17.046;2023-02-20T21:24:51;99628.50;;;10.92;68.22
31717;BME280;18301;51.076;17.046;2023-02-20T21:29:53;99627.91;;;10.88;68.30
31717;BME280;18301;51.076;17.046;2023-02-20T21:34:55;99621.94;;;10.85;68.64
31717;BME280;18301;51.076;17.046;2023-02-20T21:39:56;99616.75;;;10.72;68.93
31717;BME280;18301;51.076;17.046;2023-02-20T21:44:58;99624.59;;;10.54;69.12
31717;BME280;18301;51.076;17.046;2023-02-20T21:49:59;99624.38;;;10.88;67.95
31717;BME280;18301;51.076;17.046;2023-02-20T21:55:03;99620.38;;;10.40;69.84
31717;BME280;18301;51.076;17.046;2023-02-20T22:00:06;99621.56;;;10.26;70.60
31717;BME280;18301;51.076;17.046;2023-02-20T22:05:08;99623.22;;;10.39;70.18
31717;BME280;18301;51.076;17.046;2023-02-20T22:10:10;99627.81;;;10.48;70.19
31717;BME280;18301;51.076;17.046;2023-02-20T22:15:30;99627.59;;;10.40;70.60
31717;BME280;18301;51.076;17.046;2023-02-20T22:20:50;99605.47;;;10.25;71.24
31717;BME280;18301;51.076;17.046;2023-02-20T22:26:13;99604.53;;;10.47;70.23
31717;BME280;18301;51.076;17.046;2023-02-20T22:31:34;99592.47;;;10.72;69.70
31717;BME280;18301;51.076;17.046;2023-02-20T22:36:54;99603.84;;;10.33;71.21
31717;BME280;18301;51.076;17.046;2023-02-20T22:42:14;99600.03;;;10.36;71.11
31717;BME280;18301;51.076;17.046;2023-02-20T22:47:35;99607.66;;;10.52;70.20
31717;BME280;18301;51.076;17.046;2023-02-20T22:52:56;99597.41;;;10.67;70.08
31717;BME280;18301;51.076;17.046;2023-02-20T22:58:16;99598.47;;;10.33;71.00
31717;BME280;18301;51.076;17.046;2023-02-20T23:03:39;99601.91;;;10.35;70.92
31717;BME280;18301;51.076;17.046;2023-02-20T23:08:59;99599.84;;;10.49;70.80
31717;BME280;18301;51.076;17.046;2023-02-20T23:14:20;99598.97;;;10.69;70.17
31717;BME280;18301;51.076;17.046;2023-02-20T23:19:40;99585.75;;;10.97;69.55
31717;BME280;18301;51.076;17.046;2023-02-20T23:25:01;99601.78;;;10.68;70.84
31717;BME280;18301;51.076;17.046;2023-02-20T23:30:20;99600.47;;;10.31;72.35
31717;BME280;18301;51.076;17.046;2023-02-20T23:35:41;99575.31;;;10.52;71.60
31717;BME280;18301;51.076;17.046;2023-02-20T23:41:00;99592.22;;;10.33;72.97
31717;BME280;18301;51.076;17.046;2023-02-20T23:46:20;99563.34;;;10.45;72.70
31717;BME280;18301;51.076;17.046;2023-02-20T23:51:40;99589.81;;;10.19;74.29
31717;BME280;18301;51.076;17.046;2023-02-20T23:57:08;99570.38;;;10.57;72.92
